createdAt,value
2022-08-28T00:01:32.371Z,2.42
2022-08-28T00:04:01.680Z,2.35
2022-08-28T00:06:30.729Z,2.28
2022-08-28T00:09:00.090Z,2.45
2022-08-28T00:11:29.190Z,2.28
2022-08-28T00:14:00.924Z,3.28
2022-08-28T00:16:30.578Z,2.03
2022-08-28T00:18:59.708Z,2.70
2022-08-28T00:21:28.746Z,2.45
2022-08-28T00:23:58.154Z,2.88
2022-08-28T00:26:45.023Z,3.33
2022-08-28T00:29:15.586Z,3.25
2022-08-28T00:31:44.625Z,2.92
2022-08-28T00:34:13.675Z,3.75
2022-08-28T00:36:42.902Z,3.67
2022-08-28T00:39:12.122Z,2.97
2022-08-28T00:41:45.082Z,3.25
2022-08-28T00:44:17.100Z,2.78
2022-08-28T00:46:48.003Z,3.15
2022-08-28T00:49:18.173Z,3.22
2022-08-28T00:52:05.265Z,2.47
2022-08-28T00:54:35.364Z,2.90
2022-08-28T00:57:04.945Z,2.65
2022-08-28T00:59:37.559Z,2.45
2022-08-28T01:02:08.210Z,2.47
2022-08-28T01:04:38.067Z,2.50
2022-08-28T01:07:07.944Z,2.58
2022-08-28T01:09:39.250Z,3.08
2022-08-28T01:12:09.723Z,2.47
2022-08-28T01:14:41.846Z,2.85
2022-08-28T01:17:11.878Z,2.78
2022-08-28T01:19:42.839Z,2.50
2022-08-28T01:22:21.609Z,2.80
2022-08-28T01:24:53.803Z,2.38
2022-08-28T01:27:24.000Z,2.58
2022-08-28T01:29:55.372Z,2.75
2022-08-28T01:32:33.111Z,2.55
2022-08-28T01:35:03.067Z,2.53
2022-08-28T01:37:32.700Z,2.65
2022-08-28T01:40:03.069Z,2.58
2022-08-28T01:42:32.132Z,2.70
2022-08-28T01:45:01.093Z,2.30
2022-08-28T01:47:30.116Z,2.22
2022-08-28T01:49:59.707Z,2.00
2022-08-28T01:52:29.037Z,2.55
2022-08-28T01:54:58.131Z,2.35
2022-08-28T01:57:28.524Z,2.35
2022-08-28T01:59:57.883Z,2.33
2022-08-28T02:02:26.830Z,2.35
2022-08-28T02:04:55.899Z,2.25
2022-08-28T02:07:25.056Z,3.00
2022-08-28T02:09:54.070Z,2.70
2022-08-28T02:12:23.196Z,2.35
2022-08-28T02:14:54.664Z,1.75
2022-08-28T02:17:23.750Z,2.60
2022-08-28T02:19:52.843Z,2.47
2022-08-28T02:22:21.885Z,1.85
2022-08-28T02:24:51.069Z,2.30
2022-08-28T02:27:20.027Z,2.25
2022-08-28T02:29:49.105Z,2.63
2022-08-28T02:32:19.842Z,2.55
2022-08-28T02:34:48.975Z,2.63
2022-08-28T02:37:17.936Z,2.30
2022-08-28T02:39:47.100Z,2.80
2022-08-28T02:42:16.237Z,2.20
2022-08-28T02:44:46.220Z,2.53
2022-08-28T02:47:15.886Z,2.55
2022-08-28T02:49:46.646Z,2.95
2022-08-28T02:52:15.768Z,3.28
2022-08-28T02:54:46.287Z,2.22
2022-08-28T02:57:15.416Z,2.28
2022-08-28T02:59:45.868Z,1.80
2022-08-28T03:02:15.191Z,2.42
2022-08-28T03:04:44.619Z,2.10
2022-08-28T03:07:16.856Z,2.08
2022-08-28T03:09:46.129Z,1.67
2022-08-28T03:12:16.397Z,1.90
2022-08-28T03:14:45.729Z,1.65
2022-08-28T03:17:14.771Z,2.20
2022-08-28T03:19:43.762Z,2.00
2022-08-28T03:22:13.041Z,2.00
2022-08-28T03:24:42.919Z,2.08
2022-08-28T03:27:11.968Z,1.60
2022-08-28T03:29:40.937Z,2.13
2022-08-28T03:32:09.888Z,1.77
2022-08-28T03:34:38.869Z,1.75
2022-08-28T03:37:09.439Z,1.88
2022-08-28T03:39:38.854Z,1.80
2022-08-28T03:42:09.463Z,1.73
2022-08-28T03:44:41.602Z,1.88
2022-08-28T03:47:12.307Z,1.90
2022-08-28T03:49:41.995Z,1.93
2022-08-28T03:52:11.193Z,1.67
2022-08-28T03:54:40.530Z,1.80
2022-08-28T03:57:11.297Z,1.42
2022-08-28T03:59:40.645Z,1.50
2022-08-28T04:02:09.633Z,2.13
2022-08-28T04:04:39.230Z,1.88
2022-08-28T04:07:08.433Z,2.05
2022-08-28T04:09:37.436Z,1.70
2022-08-28T04:12:07.041Z,1.40
2022-08-28T04:14:37.975Z,2.00
2022-08-28T04:17:07.390Z,1.83
2022-08-28T04:19:36.489Z,2.60
2022-08-28T04:22:05.573Z,2.08
2022-08-28T04:24:34.629Z,1.70
2022-08-28T04:27:03.646Z,1.63
2022-08-28T04:29:32.673Z,1.95
2022-08-28T04:32:03.175Z,2.15
2022-08-28T04:34:32.319Z,1.85
2022-08-28T04:37:01.380Z,1.40
2022-08-28T04:39:30.354Z,1.88
2022-08-28T04:41:59.329Z,2.00
2022-08-28T04:44:28.439Z,1.77
2022-08-28T04:46:57.919Z,1.92
2022-08-28T04:49:29.308Z,1.48
2022-08-28T04:51:58.446Z,1.65
2022-08-28T04:54:27.522Z,1.77
2022-08-28T04:56:56.561Z,1.73
2022-08-28T04:59:25.486Z,1.83
2022-08-28T05:01:54.634Z,1.65
2022-08-28T05:04:23.653Z,1.98
2022-08-28T05:06:54.539Z,1.90
2022-08-28T05:09:23.962Z,1.77
2022-08-28T05:11:53.629Z,1.40
2022-08-28T05:14:22.775Z,1.50
2022-08-28T05:16:52.863Z,1.58
2022-08-28T05:19:22.951Z,1.50
2022-08-28T05:21:52.458Z,1.63
2022-08-28T05:24:23.298Z,1.63
2022-08-28T05:26:52.335Z,1.42
2022-08-28T05:29:21.262Z,1.80
2022-08-28T05:31:53.144Z,1.77
2022-08-28T05:34:22.520Z,1.90
2022-08-28T05:36:51.849Z,1.48
2022-08-28T05:39:20.900Z,1.75
2022-08-28T05:41:51.876Z,1.20
2022-08-28T05:44:20.997Z,1.30
2022-08-28T05:46:51.127Z,1.67
2022-08-28T05:49:20.786Z,1.40
2022-08-28T05:51:50.215Z,1.52
2022-08-28T05:54:19.685Z,1.15
2022-08-28T05:56:48.764Z,1.27
2022-08-28T05:59:19.120Z,1.30
2022-08-28T06:01:49.590Z,1.00
2022-08-28T06:04:19.877Z,1.73
2022-08-28T06:06:49.531Z,1.63
2022-08-28T06:09:19.958Z,1.30
2022-08-28T06:11:49.743Z,1.45
2022-08-28T06:14:21.385Z,1.75
2022-08-28T06:16:52.148Z,1.40
2022-08-28T06:19:22.918Z,1.15
2022-08-28T06:21:52.685Z,1.52
2022-08-28T06:24:22.443Z,1.60
2022-08-28T06:26:52.064Z,1.45
2022-08-28T06:29:27.497Z,1.23
2022-08-28T06:31:58.480Z,2.22
2022-08-28T06:34:28.012Z,1.90
2022-08-28T06:36:57.374Z,1.30
2022-08-28T06:39:26.405Z,1.25
2022-08-28T06:41:55.387Z,1.10
2022-08-28T06:44:26.162Z,1.63
2022-08-28T06:46:56.147Z,1.60
2022-08-28T06:49:25.801Z,1.50
2022-08-28T06:51:56.009Z,1.67
2022-08-28T06:54:25.066Z,1.35
2022-08-28T06:56:54.223Z,1.40
2022-08-28T06:59:23.494Z,1.20
2022-08-28T07:01:54.387Z,1.10
2022-08-28T07:04:23.958Z,1.53
2022-08-28T07:06:54.487Z,1.17
2022-08-28T07:09:24.211Z,1.20
2022-08-28T07:11:53.200Z,1.20
2022-08-28T07:14:22.270Z,1.33
2022-08-28T07:16:51.925Z,1.40
2022-08-28T07:19:22.531Z,1.33
2022-08-28T07:21:51.615Z,1.50
2022-08-28T07:24:21.679Z,1.75
2022-08-28T07:26:51.171Z,1.60
2022-08-28T07:29:21.053Z,1.40
2022-08-28T07:31:51.730Z,1.95
2022-08-28T07:34:27.263Z,1.77
2022-08-28T07:36:58.250Z,1.20
2022-08-28T07:39:27.266Z,1.40
2022-08-28T07:41:56.291Z,1.50
2022-08-28T07:44:43.162Z,1.60
2022-08-28T07:47:12.835Z,1.20
2022-08-28T07:49:43.256Z,1.55
2022-08-28T07:52:13.380Z,1.52
2022-08-28T07:54:42.677Z,1.95
2022-08-28T07:57:11.904Z,1.30
2022-08-28T07:59:42.916Z,2.25
2022-08-28T08:02:12.197Z,1.30
2022-08-28T08:04:41.302Z,1.10
2022-08-28T08:07:12.910Z,1.00
2022-08-28T08:09:43.144Z,1.95
2022-08-28T08:12:13.529Z,1.50
2022-08-28T08:14:42.876Z,1.20
2022-08-28T08:17:13.019Z,1.95
2022-08-28T08:19:42.099Z,1.30
2022-08-28T08:22:12.832Z,1.58
2022-08-28T08:24:42.294Z,2.05
2022-08-28T08:27:11.561Z,1.45
2022-08-28T08:29:40.625Z,0.98
2022-08-28T08:32:11.073Z,1.10
2022-08-28T08:34:43.235Z,1.13
2022-08-28T08:37:14.334Z,1.23
2022-08-28T08:39:43.996Z,0.85
2022-08-28T08:42:21.673Z,1.05
2022-08-28T08:44:52.018Z,1.20
2022-08-28T08:47:24.005Z,0.95
2022-08-28T08:49:54.703Z,1.13
2022-08-28T08:52:30.224Z,0.70
2022-08-28T08:55:08.387Z,0.80
2022-08-28T08:57:39.436Z,0.98
2022-08-28T09:00:15.049Z,0.93
2022-08-28T09:02:47.978Z,2.35
2022-08-28T09:05:19.886Z,1.60
2022-08-28T09:07:53.594Z,1.02
2022-08-28T09:10:23.037Z,0.80
2022-08-28T09:12:55.395Z,0.90
2022-08-28T09:15:28.231Z,1.83
2022-08-28T09:17:58.953Z,0.80
2022-08-28T09:20:32.679Z,0.80
2022-08-28T09:23:12.571Z,0.93
2022-08-28T09:25:51.784Z,1.10
2022-08-28T09:28:23.513Z,0.50
2022-08-28T09:30:55.202Z,1.80
2022-08-28T09:33:31.964Z,0.65
2022-08-28T09:36:22.668Z,0.88
2022-08-28T09:39:05.584Z,1.00
2022-08-28T09:41:48.680Z,1.20
2022-08-28T09:44:17.796Z,1.10
2022-08-28T09:46:48.749Z,0.80
2022-08-28T09:49:24.708Z,0.70
2022-08-28T09:51:53.957Z,1.20
2022-08-28T09:54:28.094Z,1.50
2022-08-28T09:56:57.835Z,1.23
2022-08-28T09:59:27.606Z,0.90
2022-08-28T10:02:03.844Z,0.80
2022-08-28T10:04:42.818Z,1.20
2022-08-28T10:07:16.566Z,0.65
2022-08-28T10:09:53.113Z,0.70
2022-08-28T10:12:30.557Z,1.00
2022-08-28T10:15:02.997Z,0.75
2022-08-28T10:17:36.840Z,0.80
2022-08-28T10:20:10.338Z,0.90
2022-08-28T10:22:44.717Z,0.70
2022-08-28T10:25:20.667Z,0.88
2022-08-28T10:27:55.888Z,0.80
2022-08-28T10:30:25.933Z,0.98
2022-08-28T10:33:15.821Z,0.70
2022-08-28T10:35:50.920Z,0.60
2022-08-28T10:38:21.642Z,0.70
2022-08-28T10:40:55.284Z,1.00
2022-08-28T10:43:27.987Z,0.50
2022-08-28T10:45:57.784Z,0.90
2022-08-28T10:48:29.240Z,0.98
2022-08-28T10:51:00.083Z,0.95
2022-08-28T10:53:33.833Z,0.90
2022-08-28T10:56:06.051Z,0.70
2022-08-28T10:58:36.200Z,0.60
2022-08-28T11:01:07.875Z,0.80
2022-08-28T11:03:41.525Z,0.70
2022-08-28T11:06:15.314Z,0.80
2022-08-28T11:08:51.687Z,0.60
2022-08-28T11:11:40.035Z,0.85
2022-08-28T11:14:09.998Z,1.00
2022-08-28T11:16:40.672Z,0.85
2022-08-28T11:19:26.870Z,0.43
2022-08-28T11:21:57.225Z,0.98
2022-08-28T11:24:33.541Z,0.70
2022-08-28T11:27:16.851Z,1.00
2022-08-28T11:30:00.102Z,0.52
2022-08-28T11:32:37.188Z,1.00
2022-08-28T11:35:08.593Z,0.90
2022-08-28T11:37:42.010Z,1.17
2022-08-28T11:40:21.365Z,0.52
2022-08-28T11:42:51.882Z,0.73
2022-08-28T11:45:22.630Z,0.80
2022-08-28T11:47:56.399Z,0.70
2022-08-28T11:50:32.743Z,0.68
2022-08-28T11:53:22.927Z,1.17
2022-08-28T11:55:59.072Z,0.90
2022-08-28T11:58:33.679Z,1.02
2022-08-28T12:01:05.385Z,0.95
2022-08-28T12:03:37.798Z,0.60
2022-08-28T12:06:07.725Z,0.90
2022-08-28T12:09:13.346Z,0.80
2022-08-28T12:11:52.784Z,0.60
2022-08-28T12:14:40.840Z,0.50
2022-08-28T12:17:31.146Z,0.80
2022-08-28T12:20:08.923Z,0.70
2022-08-28T12:22:45.862Z,0.68
2022-08-28T12:25:21.556Z,1.00
2022-08-28T12:27:51.087Z,0.70
2022-08-28T12:30:29.735Z,0.57
2022-08-28T12:33:05.407Z,0.50
2022-08-28T12:35:34.572Z,0.40
2022-08-28T12:38:04.723Z,0.70
2022-08-28T12:40:36.059Z,0.60
2022-08-28T12:43:06.784Z,0.45
2022-08-28T12:45:38.120Z,0.75
2022-08-28T12:48:14.952Z,0.38
2022-08-28T12:50:44.134Z,0.60
2022-08-28T12:53:14.553Z,0.50
2022-08-28T12:55:44.694Z,0.60
2022-08-28T12:58:16.604Z,0.63
2022-08-28T13:00:54.516Z,1.10
2022-08-28T13:03:25.221Z,0.57
2022-08-28T13:05:58.445Z,0.63
2022-08-28T13:08:28.256Z,0.73
2022-08-28T13:10:57.914Z,0.52
2022-08-28T13:13:30.881Z,0.30
2022-08-28T13:16:01.387Z,0.60
2022-08-28T13:18:39.444Z,0.50
2022-08-28T13:21:34.107Z,0.70
2022-08-28T13:24:18.784Z,0.50
2022-08-28T13:26:48.148Z,0.73
2022-08-28T13:29:19.552Z,0.75
2022-08-28T13:31:57.174Z,1.23
2022-08-28T13:34:29.205Z,0.65
2022-08-28T13:37:00.125Z,0.70
2022-08-28T13:39:30.484Z,0.60
2022-08-28T13:42:00.272Z,0.65
2022-08-28T13:44:34.178Z,0.50
2022-08-28T13:47:03.861Z,1.15
2022-08-28T13:49:34.802Z,0.50
2022-08-28T13:52:05.581Z,0.52
2022-08-28T13:57:05.053Z,0.70
2022-08-28T13:59:34.927Z,0.38
2022-08-28T14:02:23.968Z,0.52
2022-08-28T14:04:54.557Z,0.60
2022-08-28T14:07:23.787Z,0.73
2022-08-28T14:09:56.418Z,0.63
2022-08-28T14:12:32.804Z,1.42
2022-08-28T14:15:02.905Z,0.57
2022-08-28T14:17:33.074Z,0.50
2022-08-28T14:20:03.607Z,0.60
2022-08-28T14:22:32.984Z,0.30
2022-08-28T14:25:02.546Z,0.63
2022-08-28T14:27:31.605Z,0.32
2022-08-28T14:30:02.462Z,0.63
2022-08-28T14:32:31.657Z,0.60
2022-08-28T14:35:00.939Z,0.95
2022-08-28T14:37:33.934Z,0.50
2022-08-28T14:40:03.536Z,0.40
2022-08-28T14:42:32.649Z,0.50
2022-08-28T14:45:02.076Z,0.70
2022-08-28T14:47:31.121Z,0.60
2022-08-28T14:50:00.291Z,0.70
2022-08-28T14:52:30.922Z,0.45
2022-08-28T14:55:00.159Z,1.40
2022-08-28T14:57:29.322Z,1.67
2022-08-28T14:59:58.969Z,1.52
2022-08-28T15:02:28.556Z,1.08
2022-08-28T15:04:58.374Z,0.65
2022-08-28T15:07:27.662Z,0.73
2022-08-28T15:09:58.341Z,0.30
2022-08-28T15:12:31.564Z,0.60
2022-08-28T15:15:00.702Z,0.60
2022-08-28T15:17:34.472Z,0.30
2022-08-28T15:20:03.947Z,0.50
2022-08-28T15:22:33.304Z,0.40
2022-08-28T15:25:05.819Z,0.70
2022-08-28T15:27:35.196Z,0.93
2022-08-28T15:30:04.332Z,0.50
2022-08-28T15:32:33.647Z,0.40
2022-08-28T15:35:02.720Z,0.40
2022-08-28T15:37:31.837Z,0.55
2022-08-28T15:40:18.473Z,0.70
2022-08-28T15:42:48.963Z,0.45
2022-08-28T15:45:21.373Z,0.60
2022-08-28T15:47:50.526Z,0.93
2022-08-28T15:50:20.000Z,0.50
2022-08-28T15:52:49.448Z,0.70
2022-08-28T15:55:22.683Z,0.50
2022-08-28T15:57:53.169Z,0.80
2022-08-28T16:00:22.500Z,0.60
2022-08-28T16:02:51.675Z,0.90
2022-08-28T16:05:20.849Z,0.65
2022-08-28T16:07:49.847Z,0.70
2022-08-28T16:10:19.824Z,0.60
2022-08-28T16:12:53.672Z,0.70
2022-08-28T16:15:29.379Z,0.90
2022-08-28T16:17:58.765Z,1.08
2022-08-28T16:20:28.003Z,0.63
2022-08-28T16:22:57.148Z,0.52
2022-08-28T16:25:26.538Z,1.15
2022-08-28T16:27:56.393Z,0.85
2022-08-28T16:30:25.371Z,0.70
2022-08-28T16:33:00.953Z,0.82
2022-08-28T16:35:30.065Z,0.73
2022-08-28T16:37:59.250Z,0.93
2022-08-28T16:40:28.919Z,0.80
2022-08-28T16:42:58.751Z,0.60
2022-08-28T16:45:28.209Z,0.98
2022-08-28T16:47:58.874Z,0.77
2022-08-28T16:50:31.638Z,0.80
2022-08-28T16:53:06.230Z,0.60
2022-08-28T16:55:39.394Z,1.90
2022-08-28T16:58:08.735Z,0.70
2022-08-28T17:00:52.299Z,0.77
2022-08-28T17:03:26.806Z,1.20
2022-08-28T17:05:57.932Z,1.05
2022-08-28T17:08:27.692Z,1.20
2022-08-28T17:10:57.572Z,0.73
2022-08-28T17:13:29.545Z,0.73
2022-08-28T17:15:58.814Z,1.10
2022-08-28T17:18:29.481Z,0.77
2022-08-28T17:21:16.479Z,0.70
2022-08-28T17:23:46.569Z,0.68
2022-08-28T17:26:16.835Z,0.73
2022-08-28T17:28:46.493Z,1.10
2022-08-28T17:31:15.799Z,1.90
2022-08-28T17:33:47.044Z,1.00
2022-08-28T17:36:22.280Z,0.60
2022-08-28T17:39:04.513Z,0.80
2022-08-28T17:41:37.471Z,1.42
2022-08-28T17:44:07.462Z,0.90
2022-08-28T17:46:38.226Z,0.60
2022-08-28T17:49:10.101Z,0.88
2022-08-28T17:51:42.409Z,0.75
2022-08-28T17:54:12.853Z,0.65
2022-08-28T17:56:42.459Z,1.00
2022-08-28T17:59:12.651Z,0.85
2022-08-28T18:01:42.977Z,0.68
2022-08-28T18:04:14.302Z,0.85
2022-08-28T18:06:43.585Z,1.57
2022-08-28T18:09:14.178Z,0.95
2022-08-28T18:11:44.414Z,0.95
2022-08-28T18:14:15.905Z,0.70
2022-08-28T18:16:45.525Z,0.82
2022-08-28T18:19:16.773Z,0.88
2022-08-28T18:21:46.422Z,0.65
2022-08-28T18:24:16.863Z,0.95
2022-08-28T18:26:47.415Z,1.25
2022-08-28T18:29:24.711Z,0.80
2022-08-28T18:31:58.000Z,0.80
2022-08-28T18:34:29.820Z,1.20
2022-08-28T18:36:59.622Z,0.80
2022-08-28T18:39:33.095Z,0.77
2022-08-28T18:42:03.342Z,0.80
2022-08-28T18:44:38.919Z,1.05
2022-08-28T18:47:08.880Z,1.10
2022-08-28T18:52:13.586Z,1.95
2022-08-28T18:54:43.001Z,2.00
2022-08-28T18:57:14.239Z,1.58
2022-08-28T18:59:44.042Z,1.38
2022-08-28T19:02:15.265Z,0.60
2022-08-28T19:04:44.941Z,1.58
2022-08-28T19:07:16.580Z,1.08
2022-08-28T19:09:46.341Z,1.23
2022-08-28T19:12:15.956Z,0.90
2022-08-28T19:14:45.474Z,1.65
2022-08-28T19:17:19.125Z,1.73
2022-08-28T19:19:51.296Z,2.25
2022-08-28T19:22:22.668Z,1.63
2022-08-28T19:24:52.107Z,1.67
2022-08-28T19:27:23.239Z,2.47
2022-08-28T19:29:55.901Z,2.15
2022-08-28T19:32:27.187Z,1.45
2022-08-28T19:34:57.166Z,1.98
2022-08-28T19:37:28.468Z,1.20
2022-08-28T19:39:58.483Z,1.37
2022-08-28T19:42:28.852Z,0.90
2022-08-28T19:45:00.004Z,0.88
2022-08-28T19:47:29.458Z,1.80
2022-08-28T19:50:05.148Z,1.08
2022-08-28T19:52:37.561Z,1.00
2022-08-28T19:55:07.762Z,1.33
2022-08-28T19:57:37.201Z,1.60
2022-08-28T20:00:07.240Z,1.35
2022-08-28T20:06:51.730Z,1.45
2022-08-28T20:09:27.204Z,2.58
2022-08-28T20:11:56.569Z,1.33
2022-08-28T20:14:25.877Z,1.80
2022-08-28T20:16:55.418Z,2.30
2022-08-28T20:19:27.305Z,1.88
2022-08-28T20:21:56.584Z,5.05
2022-08-28T20:24:29.390Z,2.22
2022-08-28T20:26:58.570Z,1.38
2022-08-28T20:29:29.547Z,1.10
2022-08-28T20:31:58.839Z,1.33
2022-08-28T20:34:28.519Z,1.48
2022-08-28T20:36:57.815Z,1.33
2022-08-28T20:39:30.725Z,1.65
2022-08-28T20:42:17.311Z,1.80
2022-08-28T20:44:46.706Z,2.78
2022-08-28T20:47:18.841Z,3.80
2022-08-28T20:49:48.265Z,2.95
2022-08-28T20:52:17.488Z,3.40
2022-08-28T20:54:48.360Z,2.45
2022-08-28T20:57:35.939Z,2.17
2022-08-28T21:00:14.834Z,2.35
2022-08-28T21:02:45.137Z,1.98
2022-08-28T21:05:25.497Z,2.22
2022-08-28T21:08:00.399Z,1.77
2022-08-28T21:10:33.430Z,1.80
2022-08-28T21:15:59.104Z,1.50
2022-08-28T21:18:31.262Z,1.30
2022-08-28T21:23:29.168Z,1.52
2022-08-28T21:25:59.671Z,2.33
2022-08-28T21:28:29.758Z,3.58
2022-08-28T21:30:58.863Z,2.83
2022-08-28T21:33:28.444Z,3.35
2022-08-28T21:35:57.907Z,3.33
2022-08-28T21:38:27.024Z,3.58
2022-08-28T21:40:55.979Z,4.40
2022-08-28T21:43:26.498Z,4.28
2022-08-28T21:46:01.296Z,3.78
2022-08-28T21:48:30.802Z,4.03
2022-08-28T21:50:59.907Z,3.10
2022-08-28T21:53:31.537Z,2.17
2022-08-28T21:56:00.467Z,2.33
2022-08-28T21:58:31.490Z,2.28
2022-08-28T22:01:00.814Z,2.72
2022-08-28T22:03:31.202Z,4.38
2022-08-28T22:06:00.147Z,3.25
2022-08-28T22:08:29.334Z,3.78
2022-08-28T22:10:58.266Z,3.40
2022-08-28T22:13:27.365Z,3.00
2022-08-28T22:15:57.828Z,2.85
2022-08-28T22:18:32.053Z,2.60
2022-08-28T22:21:21.365Z,2.60
2022-08-28T22:23:50.735Z,2.40
2022-08-28T22:26:20.520Z,2.70
2022-08-28T22:28:49.752Z,2.75
2022-08-28T22:31:20.169Z,2.25
2022-08-28T22:33:49.417Z,2.45
2022-08-28T22:36:19.957Z,2.40
2022-08-28T22:38:53.478Z,2.92
2022-08-28T22:41:22.828Z,2.93
2022-08-28T22:43:53.816Z,2.33
2022-08-28T22:46:24.728Z,9.48
2022-08-28T22:48:54.242Z,4.80
2022-08-28T22:51:23.366Z,4.28
2022-08-28T22:53:52.444Z,4.20
2022-08-28T22:56:21.523Z,4.32
2022-08-28T22:58:50.483Z,4.28
2022-08-28T23:01:21.134Z,4.38
2022-08-28T23:03:52.077Z,4.60
2022-08-28T23:06:21.571Z,5.30
2022-08-28T23:08:50.834Z,3.67
2022-08-28T23:11:19.851Z,2.67
2022-08-28T23:13:49.045Z,1.95
2022-08-28T23:16:23.990Z,2.70
2022-08-28T23:19:09.207Z,7.32
2022-08-28T23:21:43.777Z,2.40
2022-08-28T23:24:13.582Z,2.67
2022-08-28T23:26:45.458Z,3.45
2022-08-28T23:29:15.016Z,3.80
2022-08-28T23:31:44.102Z,3.50
2022-08-28T23:34:14.515Z,3.42
2022-08-28T23:36:43.613Z,2.40
2022-08-28T23:39:12.915Z,3.03
2022-08-28T23:41:42.000Z,2.40
2022-08-28T23:44:11.200Z,2.88
2022-08-28T23:46:41.708Z,2.80
2022-08-28T23:49:11.692Z,2.88
2022-08-28T23:51:42.567Z,3.05
2022-08-28T23:54:12.362Z,2.80
2022-08-28T23:56:43.709Z,3.33
2022-08-28T23:59:13.124Z,3.10
